sensor_id;sensor_type;location;lat;lon;timestamp;P1;durP1;ratioP1;P2;durP2;ratioP2
22111;SDS011;11222;50.872;4.312;2022-12-31T00:01:39;3.13;;;2.00;;
22111;SDS011;11222;50.872;4.312;2022-12-31T00:04:05;2.72;;;1.70;;
22111;SDS011;11222;50.872;4.312;2022-12-31T00:06:31;2.20;;;1.80;;
22111;SDS011;11222;50.872;4.312;2022-12-31T00:08:59;2.67;;;2.00;;
22111;SDS011;11222;50.872;4.312;2022-12-31T00:11:26;1.73;;;1.63;;
22111;SDS011;11222;50.872;4.312;2022-12-31T00:13:53;2.13;;;1.90;;
22111;SDS011;11222;50.872;4.312;2022-12-31T00:16:21;2.45;;;1.80;;
22111;SDS011;11222;50.872;4.312;2022-12-31T00:19:06;2.63;;;1.58;;
22111;SDS011;11222;50.872;4.312;2022-12-31T00:21:34;2.42;;;1.85;;
22111;SDS011;11222;50.872;4.312;2022-12-31T00:24:01;2.13;;;1.50;;
22111;SDS011;11222;50.872;4.312;2022-12-31T00:26:29;1.52;;;1.42;;
22111;SDS011;11222;50.872;4.312;2022-12-31T00:28:56;1.52;;;1.30;;
22111;SDS011;11222;50.872;4.312;2022-12-31T00:31:23;1.85;;;1.30;;
22111;SDS011;11222;50.872;4.312;2022-12-31T00:33:51;1.63;;;1.10;;
22111;SDS011;11222;50.872;4.312;2022-12-31T00:36:18;1.90;;;1.20;;
22111;SDS011;11222;50.872;4.312;2022-12-31T00:38:45;1.95;;;1.00;;
22111;SDS011;11222;50.872;4.312;2022-12-31T00:41:12;0.90;;;0.90;;
22111;SDS011;11222;50.872;4.312;2022-12-31T00:43:39;1.20;;;1.10;;
22111;SDS011;11222;50.872;4.312;2022-12-31T00:46:06;1.20;;;1.10;;
22111;SDS011;11222;50.872;4.312;2022-12-31T00:48:32;1.00;;;1.00;;
22111;SDS011;11222;50.872;4.312;2022-12-31T00:50:59;0.93;;;0.90;;
22111;SDS011;11222;50.872;4.312;2022-12-31T00:53:26;0.98;;;0.98;;
22111;SDS011;11222;50.872;4.312;2022-12-31T00:55:58;0.88;;;0.85;;
22111;SDS011;11222;50.872;4.312;2022-12-31T00:58:27;0.90;;;0.90;;
22111;SDS011;11222;50.872;4.312;2022-12-31T01:00:53;1.23;;;0.90;;
22111;SDS011;11222;50.872;4.312;2022-12-31T01:03:19;1.00;;;1.00;;
22111;SDS011;11222;50.872;4.312;2022-12-31T01:05:44;1.13;;;0.90;;
22111;SDS011;11222;50.872;4.312;2022-12-31T01:08:10;0.85;;;0.85;;
22111;SDS011;11222;50.872;4.312;2022-12-31T01:10:36;0.70;;;0.70;;
22111;SDS011;11222;50.872;4.312;2022-12-31T01:13:20;0.95;;;0.80;;
22111;SDS011;11222;50.872;4.312;2022-12-31T01:15:46;0.93;;;0.80;;
22111;SDS011;11222;50.872;4.312;2022-12-31T01:18:12;1.50;;;0.80;;
22111;SDS011;11222;50.872;4.312;2022-12-31T01:20:39;3.63;;;1.50;;
22111;SDS011;11222;50.872;4.312;2022-12-31T01:23:06;0.93;;;0.90;;
22111;SDS011;11222;50.872;4.312;2022-12-31T01:25:34;0.75;;;0.73;;
22111;SDS011;11222;50.872;4.312;2022-12-31T01:28:01;3.30;;;1.00;;
22111;SDS011;11222;50.872;4.312;2022-12-31T01:30:27;1.02;;;0.80;;
22111;SDS011;11222;50.872;4.312;2022-12-31T01:32:53;1.23;;;0.80;;
22111;SDS011;11222;50.872;4.312;2022-12-31T01:35:18;0.98;;;0.77;;
22111;SDS011;11222;50.872;4.312;2022-12-31T01:37:44;1.48;;;0.70;;
22111;SDS011;11222;50.872;4.312;2022-12-31T01:40:10;1.98;;;0.75;;
22111;SDS011;11222;50.872;4.312;2022-12-31T01:42:36;2.05;;;1.05;;
22111;SDS011;11222;50.872;4.312;2022-12-31T01:45:02;0.82;;;0.60;;
22111;SDS011;11222;50.872;4.312;2022-12-31T01:47:37;1.08;;;0.60;;
22111;SDS011;11222;50.872;4.312;2022-12-31T01:50:11;1.00;;;0.85;;
22111;SDS011;11222;50.872;4.312;2022-12-31T01:52:45;0.85;;;0.60;;
22111;SDS011;11222;50.872;4.312;2022-12-31T01:55:18;1.20;;;0.80;;
22111;SDS011;11222;50.872;4.312;2022-12-31T01:57:51;0.90;;;0.70;;
22111;SDS011;11222;50.872;4.312;2022-12-31T02:00:21;1.05;;;0.95;;
22111;SDS011;11222;50.872;4.312;2022-12-31T02:02:47;1.00;;;0.90;;
22111;SDS011;11222;50.872;4.312;2022-12-31T02:08:04;0.95;;;0.80;;
22111;SDS011;11222;50.872;4.312;2022-12-31T02:10:31;1.67;;;1.00;;
22111;SDS011;11222;50.872;4.312;2022-12-31T02:12:57;1.80;;;0.82;;
22111;SDS011;11222;50.872;4.312;2022-12-31T02:15:29;0.98;;;0.82;;
22111;SDS011;11222;50.872;4.312;2022-12-31T02:23:24;2.00;;;1.00;;
22111;SDS011;11222;50.872;4.312;2022-12-31T02:31:27;2.22;;;1.00;;
22111;SDS011;11222;50.872;4.312;2022-12-31T02:34:11;2.47;;;0.88;;
22111;SDS011;11222;50.872;4.312;2022-12-31T02:36:43;1.25;;;0.90;;
22111;SDS011;11222;50.872;4.312;2022-12-31T02:39:11;1.88;;;1.00;;
22111;SDS011;11222;50.872;4.312;2022-12-31T02:41:38;3.08;;;1.33;;
22111;SDS011;11222;50.872;4.312;2022-12-31T02:44:29;5.80;;;1.48;;
22111;SDS011;11222;50.872;4.312;2022-12-31T02:52:45;3.25;;;1.17;;
22111;SDS011;11222;50.872;4.312;2022-12-31T02:58:08;3.60;;;1.70;;
22111;SDS011;11222;50.872;4.312;2022-12-31T03:00:44;2.80;;;1.58;;
22111;SDS011;11222;50.872;4.312;2022-12-31T03:03:35;3.60;;;1.30;;
22111;SDS011;11222;50.872;4.312;2022-12-31T03:06:02;5.85;;;1.45;;
22111;SDS011;11222;50.872;4.312;2022-12-31T03:08:30;3.95;;;1.33;;
22111;SDS011;11222;50.872;4.312;2022-12-31T03:10:55;5.05;;;1.50;;
22111;SDS011;11222;50.872;4.312;2022-12-31T03:13:22;3.13;;;1.23;;
22111;SDS011;11222;50.872;4.312;2022-12-31T03:15:48;4.10;;;1.13;;
22111;SDS011;11222;50.872;4.312;2022-12-31T03:18:16;3.17;;;0.98;;
22111;SDS011;11222;50.872;4.312;2022-12-31T03:21:09;5.40;;;1.40;;
22111;SDS011;11222;50.872;4.312;2022-12-31T03:23:54;3.70;;;1.35;;
22111;SDS011;11222;50.872;4.312;2022-12-31T03:26:38;3.05;;;1.30;;
22111;SDS011;11222;50.872;4.312;2022-12-31T03:29:04;4.45;;;1.40;;
22111;SDS011;11222;50.872;4.312;2022-12-31T03:31:29;3.05;;;1.50;;
22111;SDS011;11222;50.872;4.312;2022-12-31T03:33:55;4.57;;;1.38;;
22111;SDS011;11222;50.872;4.312;2022-12-31T03:36:21;3.95;;;1.27;;
22111;SDS011;11222;50.872;4.312;2022-12-31T03:38:46;1.38;;;1.00;;
22111;SDS011;11222;50.872;4.312;2022-12-31T03:41:12;3.13;;;1.40;;
22111;SDS011;11222;50.872;4.312;2022-12-31T03:43:38;3.42;;;1.38;;
22111;SDS011;11222;50.872;4.312;2022-12-31T03:46:03;3.38;;;1.50;;
22111;SDS011;11222;50.872;4.312;2022-12-31T03:48:29;2.30;;;1.40;;
22111;SDS011;11222;50.872;4.312;2022-12-31T03:50:55;1.95;;;1.10;;
22111;SDS011;11222;50.872;4.312;2022-12-31T03:53:21;2.92;;;1.15;;
22111;SDS011;11222;50.872;4.312;2022-12-31T03:55:53;3.28;;;1.35;;
22111;SDS011;11222;50.872;4.312;2022-12-31T03:58:19;3.30;;;1.40;;
22111;SDS011;11222;50.872;4.312;2022-12-31T04:00:45;1.60;;;1.23;;
22111;SDS011;11222;50.872;4.312;2022-12-31T04:03:11;3.25;;;1.20;;
22111;SDS011;11222;50.872;4.312;2022-12-31T04:05:37;1.67;;;0.93;;
22111;SDS011;11222;50.872;4.312;2022-12-31T04:08:02;2.78;;;1.13;;
22111;SDS011;11222;50.872;4.312;2022-12-31T04:10:28;2.53;;;1.30;;
22111;SDS011;11222;50.872;4.312;2022-12-31T04:12:54;2.60;;;1.30;;
22111;SDS011;11222;50.872;4.312;2022-12-31T04:15:20;3.42;;;1.30;;
22111;SDS011;11222;50.872;4.312;2022-12-31T04:17:46;3.08;;;1.05;;
22111;SDS011;11222;50.872;4.312;2022-12-31T04:20:12;2.55;;;1.20;;
22111;SDS011;11222;50.872;4.312;2022-12-31T04:22:39;2.65;;;1.27;;
22111;SDS011;11222;50.872;4.312;2022-12-31T04:25:06;3.83;;;1.40;;
22111;SDS011;11222;50.872;4.312;2022-12-31T04:27:36;2.75;;;1.13;;
22111;SDS011;11222;50.872;4.312;2022-12-31T04:30:03;3.20;;;1.52;;
22111;SDS011;11222;50.872;4.312;2022-12-31T04:32:29;3.47;;;1.02;;
22111;SDS011;11222;50.872;4.312;2022-12-31T04:34:55;3.55;;;1.48;;
22111;SDS011;11222;50.872;4.312;2022-12-31T04:37:21;4.93;;;1.25;;
22111;SDS011;11222;50.872;4.312;2022-12-31T04:39:46;4.72;;;1.10;;
22111;SDS011;11222;50.872;4.312;2022-12-31T04:42:12;5.05;;;1.15;;
22111;SDS011;11222;50.872;4.312;2022-12-31T04:44:38;4.15;;;1.15;;
22111;SDS011;11222;50.872;4.312;2022-12-31T04:47:03;2.08;;;1.10;;
22111;SDS011;11222;50.872;4.312;2022-12-31T04:49:29;2.40;;;1.30;;
22111;SDS011;11222;50.872;4.312;2022-12-31T04:51:55;2.47;;;1.10;;
22111;SDS011;11222;50.872;4.312;2022-12-31T04:54:20;3.03;;;1.20;;
22111;SDS011;11222;50.872;4.312;2022-12-31T04:56:46;3.35;;;1.20;;
22111;SDS011;11222;50.872;4.312;2022-12-31T04:59:12;4.25;;;1.10;;
22111;SDS011;11222;50.872;4.312;2022-12-31T05:01:37;3.30;;;1.05;;
22111;SDS011;11222;50.872;4.312;2022-12-31T05:04:03;2.25;;;1.20;;
22111;SDS011;11222;50.872;4.312;2022-12-31T05:06:29;2.10;;;1.05;;
22111;SDS011;11222;50.872;4.312;2022-12-31T05:08:55;2.35;;;1.10;;
22111;SDS011;11222;50.872;4.312;2022-12-31T05:11:20;1.88;;;1.10;;
22111;SDS011;11222;50.872;4.312;2022-12-31T05:13:46;3.53;;;1.08;;
22111;SDS011;11222;50.872;4.312;2022-12-31T05:16:12;2.03;;;1.00;;
22111;SDS011;11222;50.872;4.312;2022-12-31T05:18:37;3.60;;;1.35;;
22111;SDS011;11222;50.872;4.312;2022-12-31T05:21:03;3.78;;;1.30;;
22111;SDS011;11222;50.872;4.312;2022-12-31T05:23:30;2.53;;;1.20;;
22111;SDS011;11222;50.872;4.312;2022-12-31T05:25:56;1.92;;;1.20;;
22111;SDS011;11222;50.872;4.312;2022-12-31T05:28:23;1.80;;;1.00;;
22111;SDS011;11222;50.872;4.312;2022-12-31T05:30:49;3.83;;;1.10;;
22111;SDS011;11222;50.872;4.312;2022-12-31T05:33:15;5.13;;;1.23;;
22111;SDS011;11222;50.872;4.312;2022-12-31T05:35:42;5.07;;;1.10;;
22111;SDS011;11222;50.872;4.312;2022-12-31T05:38:07;2.28;;;1.13;;
22111;SDS011;11222;50.872;4.312;2022-12-31T05:40:33;2.58;;;1.38;;
22111;SDS011;11222;50.872;4.312;2022-12-31T05:42:59;4.38;;;1.35;;
22111;SDS011;11222;50.872;4.312;2022-12-31T05:45:24;4.68;;;1.30;;
22111;SDS011;11222;50.872;4.312;2022-12-31T05:47:50;4.80;;;1.45;;
22111;SDS011;11222;50.872;4.312;2022-12-31T05:50:16;3.53;;;1.23;;
22111;SDS011;11222;50.872;4.312;2022-12-31T05:52:42;3.85;;;1.40;;
22111;SDS011;11222;50.872;4.312;2022-12-31T05:55:09;3.90;;;1.27;;
22111;SDS011;11222;50.872;4.312;2022-12-31T05:57:36;1.92;;;1.10;;
22111;SDS011;11222;50.872;4.312;2022-12-31T06:00:04;2.97;;;1.30;;
22111;SDS011;11222;50.872;4.312;2022-12-31T06:02:30;3.42;;;1.23;;
22111;SDS011;11222;50.872;4.312;2022-12-31T06:04:56;3.30;;;1.10;;
22111;SDS011;11222;50.872;4.312;2022-12-31T06:07:23;4.25;;;1.58;;
22111;SDS011;11222;50.872;4.312;2022-12-31T06:09:49;3.20;;;1.58;;
22111;SDS011;11222;50.872;4.312;2022-12-31T06:12:14;2.83;;;1.10;;
22111;SDS011;11222;50.872;4.312;2022-12-31T06:14:40;3.13;;;1.38;;
22111;SDS011;11222;50.872;4.312;2022-12-31T06:17:06;2.75;;;1.30;;
22111;SDS011;11222;50.872;4.312;2022-12-31T06:19:31;8.80;;;1.65;;
22111;SDS011;11222;50.872;4.312;2022-12-31T06:21:57;2.70;;;1.65;;
22111;SDS011;11222;50.872;4.312;2022-12-31T06:24:23;5.80;;;1.60;;
22111;SDS011;11222;50.872;4.312;2022-12-31T06:26:48;4.57;;;1.67;;
22111;SDS011;11222;50.872;4.312;2022-12-31T06:29:14;3.28;;;1.40;;
22111;SDS011;11222;50.872;4.312;2022-12-31T06:31:40;3.60;;;1.42;;
22111;SDS011;11222;50.872;4.312;2022-12-31T06:34:06;3.45;;;1.25;;
22111;SDS011;11222;50.872;4.312;2022-12-31T06:36:31;2.95;;;1.25;;
22111;SDS011;11222;50.872;4.312;2022-12-31T06:38:57;2.90;;;1.55;;
22111;SDS011;11222;50.872;4.312;2022-12-31T06:41:23;4.07;;;1.40;;
22111;SDS011;11222;50.872;4.312;2022-12-31T06:43:49;2.50;;;1.30;;
22111;SDS011;11222;50.872;4.312;2022-12-31T06:46:16;4.57;;;1.60;;
22111;SDS011;11222;50.872;4.312;2022-12-31T06:48:42;3.55;;;1.38;;
22111;SDS011;11222;50.872;4.312;2022-12-31T06:51:15;3.45;;;1.30;;
22111;SDS011;11222;50.872;4.312;2022-12-31T06:53:44;5.63;;;1.80;;
22111;SDS011;11222;50.872;4.312;2022-12-31T06:56:12;3.28;;;1.40;;
22111;SDS011;11222;50.872;4.312;2022-12-31T06:58:41;4.68;;;1.50;;
22111;SDS011;11222;50.872;4.312;2022-12-31T07:03:47;3.40;;;1.50;;
22111;SDS011;11222;50.872;4.312;2022-12-31T07:09:24;3.28;;;1.48;;
22111;SDS011;11222;50.872;4.312;2022-12-31T07:12:29;5.00;;;1.25;;
22111;SDS011;11222;50.872;4.312;2022-12-31T07:15:13;5.05;;;1.40;;
22111;SDS011;11222;50.872;4.312;2022-12-31T07:20:16;4.20;;;1.45;;
22111;SDS011;11222;50.872;4.312;2022-12-31T07:22:43;5.20;;;1.70;;
22111;SDS011;11222;50.872;4.312;2022-12-31T07:25:16;4.38;;;1.42;;
22111;SDS011;11222;50.872;4.312;2022-12-31T07:27:48;4.32;;;1.35;;
22111;SDS011;11222;50.872;4.312;2022-12-31T07:33:19;3.08;;;1.50;;
22111;SDS011;11222;50.872;4.312;2022-12-31T07:38:48;3.35;;;1.20;;
22111;SDS011;11222;50.872;4.312;2022-12-31T07:44:01;3.67;;;1.73;;
22111;SDS011;11222;50.872;4.312;2022-12-31T07:49:14;4.22;;;1.50;;
22111;SDS011;11222;50.872;4.312;2022-12-31T07:51:40;3.97;;;1.30;;
22111;SDS011;11222;50.872;4.312;2022-12-31T07:54:06;4.50;;;1.75;;
22111;SDS011;11222;50.872;4.312;2022-12-31T07:56:32;3.70;;;1.50;;
22111;SDS011;11222;50.872;4.312;2022-12-31T07:59:07;3.40;;;1.52;;
22111;SDS011;11222;50.872;4.312;2022-12-31T08:01:51;2.30;;;1.40;;
22111;SDS011;11222;50.872;4.312;2022-12-31T08:04:39;6.22;;;1.70;;
22111;SDS011;11222;50.872;4.312;2022-12-31T08:12:54;6.40;;;1.40;;
22111;SDS011;11222;50.872;4.312;2022-12-31T08:15:26;1.38;;;1.23;;
22111;SDS011;11222;50.872;4.312;2022-12-31T08:17:52;5.53;;;1.88;;
22111;SDS011;11222;50.872;4.312;2022-12-31T08:20:18;4.10;;;1.67;;
22111;SDS011;11222;50.872;4.312;2022-12-31T08:25:39;6.00;;;1.65;;
22111;SDS011;11222;50.872;4.312;2022-12-31T08:31:04;3.88;;;1.63;;
22111;SDS011;11222;50.872;4.312;2022-12-31T08:33:40;5.45;;;1.70;;
22111;SDS011;11222;50.872;4.312;2022-12-31T08:41:47;3.00;;;1.50;;
22111;SDS011;11222;50.872;4.312;2022-12-31T08:49:33;3.22;;;1.50;;
22111;SDS011;11222;50.872;4.312;2022-12-31T08:51:59;3.72;;;1.60;;
22111;SDS011;11222;50.872;4.312;2022-12-31T08:54:26;3.65;;;1.50;;
22111;SDS011;11222;50.872;4.312;2022-12-31T09:07:48;7.15;;;1.90;;
22111;SDS011;11222;50.872;4.312;2022-12-31T09:10:23;7.07;;;2.10;;
22111;SDS011;11222;50.872;4.312;2022-12-31T09:18:42;6.15;;;2.13;;
22111;SDS011;11222;50.872;4.312;2022-12-31T09:21:09;6.55;;;1.88;;
22111;SDS011;11222;50.872;4.312;2022-12-31T09:23:38;3.10;;;1.70;;
22111;SDS011;11222;50.872;4.312;2022-12-31T09:29:07;4.13;;;1.67;;
22111;SDS011;11222;50.872;4.312;2022-12-31T09:31:56;5.25;;;1.80;;
22111;SDS011;11222;50.872;4.312;2022-12-31T09:36:56;4.25;;;2.00;;
22111;SDS011;11222;50.872;4.312;2022-12-31T09:39:45;7.65;;;2.30;;
22111;SDS011;11222;50.872;4.312;2022-12-31T09:42:39;7.03;;;1.98;;
22111;SDS011;11222;50.872;4.312;2022-12-31T09:55:54;6.10;;;2.17;;
22111;SDS011;11222;50.872;4.312;2022-12-31T10:06:46;6.95;;;2.17;;
22111;SDS011;11222;50.872;4.312;2022-12-31T10:12:54;8.50;;;2.10;;
22111;SDS011;11222;50.872;4.312;2022-12-31T10:35:48;8.93;;;2.75;;
22111;SDS011;11222;50.872;4.312;2022-12-31T10:38:33;7.95;;;2.28;;
22111;SDS011;11222;50.872;4.312;2022-12-31T10:44:11;6.55;;;2.00;;
22111;SDS011;11222;50.872;4.312;2022-12-31T11:01:16;4.55;;;2.20;;
22111;SDS011;11222;50.872;4.312;2022-12-31T11:03:51;7.78;;;2.60;;
22111;SDS011;11222;50.872;4.312;2022-12-31T11:09:47;6.95;;;2.80;;
22111;SDS011;11222;50.872;4.312;2022-12-31T11:23:24;8.35;;;2.40;;
22111;SDS011;11222;50.872;4.312;2022-12-31T11:28:48;8.15;;;2.25;;
22111;SDS011;11222;50.872;4.312;2022-12-31T11:36:43;9.88;;;3.17;;
22111;SDS011;11222;50.872;4.312;2022-12-31T11:53:27;5.32;;;2.67;;
22111;SDS011;11222;50.872;4.312;2022-12-31T11:56:20;7.10;;;2.50;;
22111;SDS011;11222;50.872;4.312;2022-12-31T11:58:50;6.43;;;2.38;;
22111;SDS011;11222;50.872;4.312;2022-12-31T12:01:23;8.15;;;2.35;;
22111;SDS011;11222;50.872;4.312;2022-12-31T12:03:59;7.30;;;2.33;;
22111;SDS011;11222;50.872;4.312;2022-12-31T12:06:30;9.45;;;3.35;;
22111;SDS011;11222;50.872;4.312;2022-12-31T12:09:09;6.47;;;2.40;;
22111;SDS011;11222;50.872;4.312;2022-12-31T12:14:18;5.53;;;2.10;;
22111;SDS011;11222;50.872;4.312;2022-12-31T12:16:57;6.80;;;2.05;;
22111;SDS011;11222;50.872;4.312;2022-12-31T12:19:25;10.18;;;2.33;;
22111;SDS011;11222;50.872;4.312;2022-12-31T12:21:54;7.35;;;2.78;;
22111;SDS011;11222;50.872;4.312;2022-12-31T12:24:21;4.30;;;2.10;;
22111;SDS011;11222;50.872;4.312;2022-12-31T12:26:50;5.75;;;2.60;;
22111;SDS011;11222;50.872;4.312;2022-12-31T12:29:17;7.43;;;2.75;;
22111;SDS011;11222;50.872;4.312;2022-12-31T12:31:58;7.55;;;2.70;;
22111;SDS011;11222;50.872;4.312;2022-12-31T12:34:27;8.30;;;2.53;;
22111;SDS011;11222;50.872;4.312;2022-12-31T12:36:56;6.57;;;2.30;;
22111;SDS011;11222;50.872;4.312;2022-12-31T12:39:32;6.82;;;2.72;;
22111;SDS011;11222;50.872;4.312;2022-12-31T12:41:59;7.13;;;2.70;;
22111;SDS011;11222;50.872;4.312;2022-12-31T12:44:27;7.40;;;2.75;;
22111;SDS011;11222;50.872;4.312;2022-12-31T12:46:53;7.57;;;2.50;;
22111;SDS011;11222;50.872;4.312;2022-12-31T12:49:53;8.60;;;3.00;;
22111;SDS011;11222;50.872;4.312;2022-12-31T13:05:47;7.68;;;2.55;;
22111;SDS011;11222;50.872;4.312;2022-12-31T13:08:24;6.13;;;2.70;;
22111;SDS011;11222;50.872;4.312;2022-12-31T13:11:17;7.70;;;3.10;;
22111;SDS011;11222;50.872;4.312;2022-12-31T13:14:40;8.75;;;2.80;;
22111;SDS011;11222;50.872;4.312;2022-12-31T13:17:42;8.50;;;3.05;;
22111;SDS011;11222;50.872;4.312;2022-12-31T13:28:33;18.40;;;4.00;;
22111;SDS011;11222;50.872;4.312;2022-12-31T13:31:03;10.50;;;3.58;;
22111;SDS011;11222;50.872;4.312;2022-12-31T13:33:39;8.27;;;2.95;;
22111;SDS011;11222;50.872;4.312;2022-12-31T13:36:18;11.02;;;4.20;;
22111;SDS011;11222;50.872;4.312;2022-12-31T13:38:50;16.33;;;4.53;;
22111;SDS011;11222;50.872;4.312;2022-12-31T13:52:03;8.10;;;3.23;;
22111;SDS011;11222;50.872;4.312;2022-12-31T13:57:41;7.10;;;2.90;;
22111;SDS011;11222;50.872;4.312;2022-12-31T14:00:13;11.07;;;3.75;;
22111;SDS011;11222;50.872;4.312;2022-12-31T14:05:22;9.38;;;4.15;;
22111;SDS011;11222;50.872;4.312;2022-12-31T14:08:01;8.77;;;3.30;;
22111;SDS011;11222;50.872;4.312;2022-12-31T14:13:17;10.13;;;4.90;;
22111;SDS011;11222;50.872;4.312;2022-12-31T14:21:38;7.18;;;3.53;;
22111;SDS011;11222;50.872;4.312;2022-12-31T14:29:56;8.35;;;3.92;;
22111;SDS011;11222;50.872;4.312;2022-12-31T14:35:19;6.75;;;3.30;;
22111;SDS011;11222;50.872;4.312;2022-12-31T14:49:05;8.63;;;4.30;;
22111;SDS011;11222;50.872;4.312;2022-12-31T14:52:05;7.20;;;3.80;;
22111;SDS011;11222;50.872;4.312;2022-12-31T14:55:19;7.28;;;3.38;;
22111;SDS011;11222;50.872;4.312;2022-12-31T14:57:49;7.07;;;3.50;;
22111;SDS011;11222;50.872;4.312;2022-12-31T15:21:59;5.80;;;3.05;;
22111;SDS011;11222;50.872;4.312;2022-12-31T15:24:51;9.70;;;3.15;;
22111;SDS011;11222;50.872;4.312;2022-12-31T15:30:02;8.25;;;3.03;;
22111;SDS011;11222;50.872;4.312;2022-12-31T15:32:40;10.02;;;2.95;;
22111;SDS011;11222;50.872;4.312;2022-12-31T15:37:45;5.50;;;3.38;;
22111;SDS011;11222;50.872;4.312;2022-12-31T15:45:49;8.80;;;3.78;;
22111;SDS011;11222;50.872;4.312;2022-12-31T15:48:19;7.03;;;3.50;;
22111;SDS011;11222;50.872;4.312;2022-12-31T15:50:50;7.10;;;2.95;;
22111;SDS011;11222;50.872;4.312;2022-12-31T15:53:30;6.93;;;3.10;;
22111;SDS011;11222;50.872;4.312;2022-12-31T15:55:59;7.03;;;3.10;;
22111;SDS011;11222;50.872;4.312;2022-12-31T15:58:27;5.82;;;3.28;;
22111;SDS011;11222;50.872;4.312;2022-12-31T16:04:00;7.35;;;3.30;;
22111;SDS011;11222;50.872;4.312;2022-12-31T16:06:30;8.98;;;3.58;;
22111;SDS011;11222;50.872;4.312;2022-12-31T16:08:59;6.38;;;2.85;;
22111;SDS011;11222;50.872;4.312;2022-12-31T16:11:25;8.07;;;3.47;;
22111;SDS011;11222;50.872;4.312;2022-12-31T16:13:54;8.48;;;3.05;;
22111;SDS011;11222;50.872;4.312;2022-12-31T16:16:26;8.27;;;3.28;;
22111;SDS011;11222;50.872;4.312;2022-12-31T16:18:54;5.72;;;2.60;;
22111;SDS011;11222;50.872;4.312;2022-12-31T16:21:26;9.35;;;3.45;;
22111;SDS011;11222;50.872;4.312;2022-12-31T16:24:03;6.20;;;2.97;;
22111;SDS011;11222;50.872;4.312;2022-12-31T16:26:52;10.25;;;3.20;;
22111;SDS011;11222;50.872;4.312;2022-12-31T16:29:18;6.32;;;3.30;;
22111;SDS011;11222;50.872;4.312;2022-12-31T16:31:47;8.10;;;3.75;;
22111;SDS011;11222;50.872;4.312;2022-12-31T16:34:16;5.93;;;2.80;;
22111;SDS011;11222;50.872;4.312;2022-12-31T16:37:00;10.63;;;3.22;;
22111;SDS011;11222;50.872;4.312;2022-12-31T16:39:32;7.97;;;3.33;;
22111;SDS011;11222;50.872;4.312;2022-12-31T16:44:55;8.00;;;3.08;;
22111;SDS011;11222;50.872;4.312;2022-12-31T16:47:25;5.93;;;3.03;;
22111;SDS011;11222;50.872;4.312;2022-12-31T16:50:00;12.05;;;3.83;;
22111;SDS011;11222;50.872;4.312;2022-12-31T16:52:39;7.72;;;3.63;;
22111;SDS011;11222;50.872;4.312;2022-12-31T16:55:08;7.13;;;4.03;;
22111;SDS011;11222;50.872;4.312;2022-12-31T16:57:46;5.28;;;3.25;;
22111;SDS011;11222;50.872;4.312;2022-12-31T17:00:19;7.75;;;3.60;;
22111;SDS011;11222;50.872;4.312;2022-12-31T17:02:59;6.88;;;3.60;;
22111;SDS011;11222;50.872;4.312;2022-12-31T17:11:33;9.20;;;3.25;;
22111;SDS011;11222;50.872;4.312;2022-12-31T17:16:35;10.55;;;4.22;;
22111;SDS011;11222;50.872;4.312;2022-12-31T17:19:25;8.93;;;3.30;;
22111;SDS011;11222;50.872;4.312;2022-12-31T17:22:00;11.90;;;3.20;;
22111;SDS011;11222;50.872;4.312;2022-12-31T17:24:33;6.65;;;2.75;;
22111;SDS011;11222;50.872;4.312;2022-12-31T17:27:04;8.43;;;3.40;;
22111;SDS011;11222;50.872;4.312;2022-12-31T17:29:32;8.13;;;2.95;;
22111;SDS011;11222;50.872;4.312;2022-12-31T17:34:49;10.13;;;3.70;;
22111;SDS011;11222;50.872;4.312;2022-12-31T17:37:21;6.68;;;3.13;;
22111;SDS011;11222;50.872;4.312;2022-12-31T17:39:53;8.52;;;3.00;;
22111;SDS011;11222;50.872;4.312;2022-12-31T17:42:28;13.07;;;3.67;;
22111;SDS011;11222;50.872;4.312;2022-12-31T17:45:00;8.50;;;3.40;;
22111;SDS011;11222;50.872;4.312;2022-12-31T17:47:39;11.30;;;3.60;;
22111;SDS011;11222;50.872;4.312;2022-12-31T17:50:23;7.78;;;3.08;;
22111;SDS011;11222;50.872;4.312;2022-12-31T17:52:58;8.65;;;3.33;;
22111;SDS011;11222;50.872;4.312;2022-12-31T17:55:32;10.40;;;3.72;;
22111;SDS011;11222;50.872;4.312;2022-12-31T17:57:58;5.70;;;3.20;;
22111;SDS011;11222;50.872;4.312;2022-12-31T18:00:28;10.63;;;3.60;;
22111;SDS011;11222;50.872;4.312;2022-12-31T18:02:53;6.38;;;3.08;;
22111;SDS011;11222;50.872;4.312;2022-12-31T18:05:21;8.52;;;3.25;;
22111;SDS011;11222;50.872;4.312;2022-12-31T18:07:48;9.38;;;3.30;;
22111;SDS011;11222;50.872;4.312;2022-12-31T18:10:14;10.73;;;3.25;;
22111;SDS011;11222;50.872;4.312;2022-12-31T18:12:43;11.27;;;3.33;;
22111;SDS011;11222;50.872;4.312;2022-12-31T18:15:20;8.45;;;3.17;;
22111;SDS011;11222;50.872;4.312;2022-12-31T18:17:47;12.43;;;3.78;;
22111;SDS011;11222;50.872;4.312;2022-12-31T18:20:13;8.80;;;3.03;;
22111;SDS011;11222;50.872;4.312;2022-12-31T18:22:40;12.13;;;3.60;;
22111;SDS011;11222;50.872;4.312;2022-12-31T18:25:11;11.13;;;3.55;;
22111;SDS011;11222;50.872;4.312;2022-12-31T18:27:40;12.63;;;4.30;;
22111;SDS011;11222;50.872;4.312;2022-12-31T18:30:08;10.20;;;3.63;;
22111;SDS011;11222;50.872;4.312;2022-12-31T18:32:35;6.47;;;3.20;;
22111;SDS011;11222;50.872;4.312;2022-12-31T18:35:02;9.88;;;3.58;;
22111;SDS011;11222;50.872;4.312;2022-12-31T18:37:35;9.68;;;5.25;;
22111;SDS011;11222;50.872;4.312;2022-12-31T18:40:01;8.25;;;3.22;;
22111;SDS011;11222;50.872;4.312;2022-12-31T18:42:26;9.80;;;3.67;;
22111;SDS011;11222;50.872;4.312;2022-12-31T18:44:53;11.05;;;3.80;;
22111;SDS011;11222;50.872;4.312;2022-12-31T18:47:19;9.70;;;3.45;;
22111;SDS011;11222;50.872;4.312;2022-12-31T18:49:48;7.43;;;3.17;;
22111;SDS011;11222;50.872;4.312;2022-12-31T18:52:14;16.17;;;3.83;;
22111;SDS011;11222;50.872;4.312;2022-12-31T18:54:42;12.27;;;3.47;;
22111;SDS011;11222;50.872;4.312;2022-12-31T18:57:12;5.43;;;3.17;;
22111;SDS011;11222;50.872;4.312;2022-12-31T18:59:39;9.20;;;3.40;;
22111;SDS011;11222;50.872;4.312;2022-12-31T19:02:10;8.88;;;3.28;;
22111;SDS011;11222;50.872;4.312;2022-12-31T19:04:39;11.53;;;3.30;;
22111;SDS011;11222;50.872;4.312;2022-12-31T19:07:05;15.90;;;3.90;;
22111;SDS011;11222;50.872;4.312;2022-12-31T19:09:30;11.68;;;3.47;;
22111;SDS011;11222;50.872;4.312;2022-12-31T19:11:56;9.48;;;3.38;;
22111;SDS011;11222;50.872;4.312;2022-12-31T19:14:22;8.40;;;3.28;;
22111;SDS011;11222;50.872;4.312;2022-12-31T19:16:50;8.20;;;3.08;;
22111;SDS011;11222;50.872;4.312;2022-12-31T19:19:17;10.02;;;3.30;;
22111;SDS011;11222;50.872;4.312;2022-12-31T19:21:43;6.60;;;3.22;;
22111;SDS011;11222;50.872;4.312;2022-12-31T19:24:14;9.65;;;3.42;;
22111;SDS011;11222;50.872;4.312;2022-12-31T19:26:44;8.18;;;3.40;;
22111;SDS011;11222;50.872;4.312;2022-12-31T19:29:17;9.00;;;3.78;;
22111;SDS011;11222;50.872;4.312;2022-12-31T19:31:44;9.00;;;3.30;;
22111;SDS011;11222;50.872;4.312;2022-12-31T19:34:10;7.88;;;3.13;;
22111;SDS011;11222;50.872;4.312;2022-12-31T19:36:36;8.20;;;3.35;;
22111;SDS011;11222;50.872;4.312;2022-12-31T19:39:03;10.40;;;3.63;;
22111;SDS011;11222;50.872;4.312;2022-12-31T19:41:30;7.47;;;3.42;;
22111;SDS011;11222;50.872;4.312;2022-12-31T19:43:56;7.18;;;3.35;;
22111;SDS011;11222;50.872;4.312;2022-12-31T19:46:22;6.60;;;3.20;;
22111;SDS011;11222;50.872;4.312;2022-12-31T19:48:51;7.40;;;3.30;;
22111;SDS011;11222;50.872;4.312;2022-12-31T19:51:18;11.27;;;3.83;;
22111;SDS011;11222;50.872;4.312;2022-12-31T19:53:45;10.68;;;3.80;;
22111;SDS011;11222;50.872;4.312;2022-12-31T19:56:13;9.20;;;3.35;;
22111;SDS011;11222;50.872;4.312;2022-12-31T19:58:41;12.25;;;3.45;;
22111;SDS011;11222;50.872;4.312;2022-12-31T20:01:06;14.07;;;3.80;;
22111;SDS011;11222;50.872;4.312;2022-12-31T20:03:33;10.13;;;3.65;;
22111;SDS011;11222;50.872;4.312;2022-12-31T20:06:03;7.50;;;3.45;;
22111;SDS011;11222;50.872;4.312;2022-12-31T20:08:34;10.10;;;4.07;;